Robertson, Wyoming
Current Conditions -  °F | °C
As of 4:15 AM on Wednesday 26 Nov 2014 (Local Time) from KFBR Reporting Station
Overcast Overcast  
Wind Chill: 27°   Ceiling: 2700
Heat Index: 37°   Visibility: 10mi
Dew Point: 33°   Wind: 20mph
Humidity: 84%   Direction: 260°W
Pressure: 30.26"   Gusts: 28mph
Location:  41.19°N, 110.41°W
Report Text: KFBR 261115Z AUTO 26017G24KT 10SM OVC027 03/00 A3026 RMK AO2 T00280003
Loading
Personal Weather Stations






























Interactive Weather Map New forecast layout! Learn more

10-Day Weather Forecast

Advertisements
Track Severe Weather on mobile